createdAt,value
2022-11-02T00:00:30.808Z,99631.31
2022-11-02T00:02:58.375Z,99627.00
2022-11-02T00:05:26.034Z,99621.84
2022-11-02T00:07:56.915Z,99624.38
2022-11-02T00:10:25.166Z,99623.59
2022-11-02T00:12:53.252Z,99619.31
2022-11-02T00:15:20.970Z,99616.56
2022-11-02T00:17:53.741Z,99621.84
2022-11-02T00:20:21.495Z,99614.81
2022-11-02T00:22:52.596Z,99618.59
2022-11-02T00:25:24.703Z,99617.72
2022-11-02T00:27:52.301Z,99616.84
2022-11-02T00:30:20.135Z,99618.50
2022-11-02T00:32:47.680Z,99612.53
2022-11-02T00:35:15.403Z,99614.22
2022-11-02T00:37:42.895Z,99606.56
2022-11-02T00:40:12.825Z,99607.69
2022-11-02T00:42:40.458Z,99608.31
2022-11-02T00:45:10.740Z,99605.94
2022-11-02T00:47:39.134Z,99608.50
2022-11-02T00:50:07.005Z,99605.78
2022-11-02T00:52:40.501Z,99599.53
2022-11-02T00:55:10.262Z,99603.06
2022-11-02T00:57:41.260Z,99602.16
2022-11-02T01:00:11.376Z,99594.28
2022-11-02T01:02:39.123Z,99602.00
2022-11-02T01:05:08.588Z,99605.44
2022-11-02T01:07:37.684Z,99600.41
2022-11-02T01:10:07.906Z,99593.50
2022-11-02T01:12:37.874Z,99600.53
2022-11-02T01:15:07.428Z,99601.28
2022-11-02T01:17:35.319Z,99601.41
2022-11-02T01:20:06.230Z,99598.00
2022-11-02T01:22:33.925Z,99600.69
2022-11-02T01:25:01.601Z,99596.41
2022-11-02T01:27:30.649Z,99586.22
2022-11-02T01:29:58.187Z,99594.81
2022-11-02T01:32:25.782Z,99594.00
2022-11-02T01:34:53.251Z,99603.41
2022-11-02T01:37:20.751Z,99595.75
2022-11-02T01:39:48.832Z,99590.66
2022-11-02T01:42:22.613Z,99594.97
2022-11-02T01:44:50.639Z,99587.34
2022-11-02T01:47:35.786Z,99581.28
2022-11-02T01:50:29.767Z,99587.16
2022-11-02T01:52:57.890Z,99585.78
2022-11-02T01:55:30.452Z,99577.94
2022-11-02T01:58:02.173Z,99587.44
2022-11-02T02:00:30.514Z,99576.38
2022-11-02T02:03:02.800Z,99578.13
2022-11-02T02:05:33.970Z,99588.31
2022-11-02T02:08:03.576Z,99580.75
2022-11-02T02:10:32.491Z,99587.34
2022-11-02T02:13:00.270Z,99589.00
2022-11-02T02:15:38.374Z,99587.44
2022-11-02T02:18:29.455Z,99592.25
2022-11-02T02:21:38.218Z,99593.03
2022-11-02T02:24:32.319Z,99588.97
2022-11-02T02:27:19.207Z,99586.56
2022-11-02T02:30:02.500Z,99592.63
2022-11-02T02:32:38.004Z,99590.88
2022-11-02T02:35:53.284Z,99586.81
2022-11-02T02:38:47.115Z,99589.44
2022-11-02T02:41:30.085Z,99588.94
2022-11-02T02:44:00.711Z,99585.50
2022-11-02T02:46:42.749Z,99573.94
2022-11-02T02:49:15.874Z,99580.34
2022-11-02T02:51:46.048Z,99575.84
2022-11-02T02:54:20.447Z,99587.09
2022-11-02T02:56:55.324Z,99587.19
2022-11-02T02:59:28.163Z,99581.81
2022-11-02T03:01:59.156Z,99582.59
2022-11-02T03:04:26.843Z,99587.00
2022-11-02T03:07:00.264Z,99591.31
2022-11-02T03:09:37.084Z,99583.59
2022-11-02T03:12:27.855Z,99587.09
2022-11-02T03:15:11.321Z,99583.84
2022-11-02T03:17:45.107Z,99595.69
2022-11-02T03:20:30.910Z,99587.25
2022-11-02T03:23:33.139Z,99595.25
2022-11-02T03:26:04.207Z,99592.97
2022-11-02T03:28:46.331Z,99599.63
2022-11-02T03:31:16.916Z,99587.63
2022-11-02T03:34:17.239Z,99593.41
2022-11-02T03:36:54.265Z,99598.00
2022-11-02T03:39:26.770Z,99592.97
2022-11-02T03:41:59.803Z,99584.81
2022-11-02T03:44:30.596Z,99587.19
2022-11-02T03:47:00.384Z,99589.56
2022-11-02T03:49:30.614Z,99586.56
2022-11-02T03:52:03.447Z,99586.66
2022-11-02T03:54:53.702Z,99589.91
2022-11-02T03:57:32.843Z,99578.16
2022-11-02T04:00:13.443Z,99584.19
2022-11-02T04:02:56.172Z,99579.53
2022-11-02T04:05:32.747Z,99577.88
2022-11-02T04:08:23.007Z,99585.16
2022-11-02T04:11:12.911Z,99584.28
2022-11-02T04:14:03.056Z,99577.53
2022-11-02T04:16:35.586Z,99585.16
2022-11-02T04:19:28.421Z,99583.41
2022-11-02T04:22:20.220Z,99587.59
2022-11-02T04:25:10.575Z,99571.22
2022-11-02T04:27:40.059Z,99582.53
2022-11-02T04:30:09.905Z,99579.03
2022-11-02T04:33:01.749Z,99583.31
2022-11-02T04:35:34.311Z,99584.38
2022-11-02T04:38:21.350Z,99580.06
2022-11-02T04:40:51.125Z,99574.03
2022-11-02T04:43:18.589Z,99566.31
2022-11-02T04:45:46.097Z,99571.41
2022-11-02T04:48:13.619Z,99562.81
2022-11-02T04:50:41.053Z,99563.59
2022-11-02T04:53:09.635Z,99566.38
2022-11-02T04:55:39.352Z,99561.22
2022-11-02T04:58:07.979Z,99568.25
2022-11-02T05:00:35.690Z,99565.16
2022-11-02T05:03:05.681Z,99569.66
2022-11-02T05:05:35.832Z,99572.34
2022-11-02T05:08:03.801Z,99563.06
2022-11-02T05:10:31.903Z,99568.50
2022-11-02T05:13:00.832Z,99569.66
2022-11-02T05:15:32.633Z,99570.69
2022-11-02T05:18:01.463Z,99563.84
2022-11-02T05:20:30.820Z,99570.75
2022-11-02T05:22:58.834Z,99568.31
2022-11-02T05:25:26.337Z,99571.97
2022-11-02T05:27:57.156Z,99569.53
2022-11-02T05:30:24.880Z,99553.28
2022-11-02T05:32:57.753Z,99558.75
2022-11-02T05:35:25.776Z,99558.91
2022-11-02T05:37:57.981Z,99565.91
2022-11-02T05:40:25.690Z,99571.81
2022-11-02T05:43:02.191Z,99570.28
2022-11-02T05:45:30.755Z,99580.31
2022-11-02T05:48:01.410Z,99580.25
2022-11-02T05:50:29.333Z,99575.94
2022-11-02T05:52:56.943Z,99568.38
2022-11-02T05:55:25.068Z,99576.72
2022-11-02T05:57:54.014Z,99573.47
2022-11-02T06:00:22.986Z,99561.63
2022-11-02T06:02:56.459Z,99567.06
2022-11-02T06:05:25.125Z,99570.63
2022-11-02T06:07:57.385Z,99569.75
2022-11-02T06:10:25.087Z,99563.88
2022-11-02T06:13:00.558Z,99569.25
2022-11-02T06:15:29.491Z,99567.16
2022-11-02T06:17:57.392Z,99565.28
2022-11-02T06:20:25.053Z,99563.81
2022-11-02T06:22:52.480Z,99562.13
2022-11-02T06:25:20.012Z,99561.59
2022-11-02T06:27:56.682Z,99564.38
2022-11-02T06:30:28.533Z,99561.84
2022-11-02T06:32:56.187Z,99572.88
2022-11-02T06:35:23.677Z,99570.91
2022-11-02T06:37:51.165Z,99570.19
2022-11-02T06:40:21.360Z,99572.81
2022-11-02T06:45:46.920Z,99566.06
2022-11-02T06:48:14.667Z,99564.56
2022-11-02T06:50:42.443Z,99571.56
2022-11-02T06:53:10.247Z,99568.41
2022-11-02T06:55:37.714Z,99567.69
2022-11-02T06:58:05.264Z,99569.19
2022-11-02T07:00:32.837Z,99566.41
2022-11-02T07:03:06.337Z,99565.44
2022-11-02T07:05:35.692Z,99565.78
2022-11-02T07:08:03.805Z,99563.91
2022-11-02T07:10:31.743Z,99568.31
2022-11-02T07:12:59.281Z,99563.69
2022-11-02T07:15:29.442Z,99570.88
2022-11-02T07:17:56.988Z,99562.97
2022-11-02T07:20:27.411Z,99574.53
2022-11-02T07:22:57.538Z,99573.56
2022-11-02T07:25:27.337Z,99575.59
2022-11-02T07:27:55.153Z,99585.13
2022-11-02T07:30:23.148Z,99581.09
2022-11-02T07:32:50.713Z,99579.50
2022-11-02T07:35:18.961Z,99585.72
2022-11-02T07:37:56.102Z,99587.97
2022-11-02T07:40:23.568Z,99581.81
2022-11-02T07:42:51.226Z,99588.69
2022-11-02T07:45:22.486Z,99590.19
2022-11-02T07:47:51.198Z,99596.59
2022-11-02T07:50:21.258Z,99591.69
2022-11-02T07:52:51.364Z,99596.94
2022-11-02T07:55:21.487Z,99600.44
2022-11-02T07:58:00.455Z,99593.13
2022-11-02T08:00:34.327Z,99591.13
2022-11-02T08:03:04.029Z,99594.31
2022-11-02T08:05:35.390Z,99601.00
2022-11-02T08:08:06.121Z,99600.81
2022-11-02T08:10:37.276Z,99594.63
2022-11-02T08:13:12.923Z,99591.44
2022-11-02T08:15:40.812Z,99594.78
2022-11-02T08:18:16.529Z,99592.38
2022-11-02T08:20:46.052Z,99596.59
2022-11-02T08:23:15.661Z,99588.97
2022-11-02T08:25:45.846Z,99583.19
2022-11-02T08:28:17.088Z,99583.25
2022-11-02T08:30:44.746Z,99585.00
2022-11-02T08:33:15.717Z,99585.50
2022-11-02T08:35:45.478Z,99578.78
2022-11-02T08:38:13.931Z,99580.81
2022-11-02T08:40:42.066Z,99573.97
2022-11-02T08:44:02.054Z,99573.81
2022-11-02T08:47:21.959Z,99583.28
2022-11-02T09:06:20.913Z,99591.06
2022-11-02T09:09:25.467Z,99580.19
2022-11-02T09:16:54.674Z,99583.53
2022-11-02T09:20:05.020Z,99575.88
2022-11-02T09:24:05.128Z,99574.72
2022-11-02T09:27:09.772Z,99569.25
2022-11-02T09:29:37.343Z,99572.59
2022-11-02T09:32:05.020Z,99575.81
2022-11-02T09:34:32.463Z,99576.75
2022-11-02T09:36:59.953Z,99572.22
2022-11-02T09:39:27.457Z,99570.72
2022-11-02T09:42:25.347Z,99575.16
2022-11-02T09:45:28.006Z,99565.50
2022-11-02T09:48:16.784Z,99573.00
2022-11-02T09:51:09.732Z,99573.47
2022-11-02T09:54:03.465Z,99565.63
2022-11-02T09:56:32.336Z,99562.75
2022-11-02T09:59:04.261Z,99568.66
2022-11-02T10:01:55.680Z,99574.53
2022-11-02T10:04:38.371Z,99574.69
2022-11-02T10:07:09.590Z,99573.09
2022-11-02T10:09:46.126Z,99569.00
2022-11-02T10:12:20.887Z,99569.66
2022-11-02T10:15:08.746Z,99571.09
2022-11-02T10:17:40.259Z,99569.41
2022-11-02T10:20:28.540Z,99568.47
2022-11-02T10:23:06.299Z,99573.63
2022-11-02T10:25:35.953Z,99574.22
2022-11-02T10:28:19.084Z,99580.41
2022-11-02T10:30:46.719Z,99582.41
2022-11-02T10:33:16.384Z,99576.28
2022-11-02T10:39:07.025Z,99582.56
2022-11-02T10:41:40.210Z,99583.44
2022-11-02T10:44:25.186Z,99589.66
2022-11-02T10:47:07.638Z,99578.59
2022-11-02T10:49:44.105Z,99577.78
2022-11-02T10:52:15.772Z,99575.63
2022-11-02T10:54:43.454Z,99577.56
2022-11-02T10:57:13.541Z,99582.81
2022-11-02T10:59:41.349Z,99578.66
2022-11-02T11:02:14.661Z,99583.94
2022-11-02T11:04:43.883Z,99584.88
2022-11-02T11:07:17.820Z,99580.91
2022-11-02T11:09:46.844Z,99587.50
2022-11-02T11:12:24.262Z,99589.97
2022-11-02T11:20:39.375Z,99591.41
2022-11-02T11:23:09.999Z,99592.84
2022-11-02T11:25:37.981Z,99593.56
2022-11-02T11:28:26.956Z,99589.22
2022-11-02T11:31:13.462Z,99588.13
2022-11-02T11:33:47.849Z,99590.38
2022-11-02T11:36:30.928Z,99585.72
2022-11-02T11:39:02.191Z,99586.59
2022-11-02T11:41:31.861Z,99580.44
2022-11-02T11:44:01.509Z,99585.06
2022-11-02T11:46:54.430Z,99589.09
2022-11-02T11:52:31.557Z,99580.53
2022-11-02T11:55:23.994Z,99577.09
2022-11-02T11:58:06.940Z,99587.91
2022-11-02T12:00:34.938Z,99589.13
2022-11-02T12:03:13.038Z,99592.69
2022-11-02T12:05:59.562Z,99593.44
2022-11-02T12:08:33.046Z,99591.69
2022-11-02T12:11:19.453Z,99590.72
2022-11-02T12:14:05.215Z,99579.66
2022-11-02T12:16:57.360Z,99592.41
2022-11-02T12:19:51.247Z,99590.53
2022-11-02T12:22:30.557Z,99601.13
2022-11-02T12:25:06.922Z,99593.81
2022-11-02T12:28:00.312Z,99597.97
2022-11-02T12:30:33.438Z,99588.22
2022-11-02T12:33:14.708Z,99592.94
2022-11-02T12:35:58.478Z,99593.81
2022-11-02T12:38:38.050Z,99594.97
2022-11-02T12:41:12.382Z,99596.69
2022-11-02T12:43:50.626Z,99606.56
2022-11-02T12:46:48.650Z,99611.59
2022-11-02T12:50:01.187Z,99615.34
2022-11-02T12:52:41.084Z,99615.56
2022-11-02T12:55:17.571Z,99617.34
2022-11-02T12:57:48.609Z,99612.53
2022-11-02T13:00:25.281Z,99618.50
2022-11-02T13:03:23.879Z,99618.50
2022-11-02T13:05:55.736Z,99618.41
2022-11-02T13:08:36.268Z,99628.25
2022-11-02T13:11:15.871Z,99621.56
2022-11-02T13:13:48.944Z,99622.78
2022-11-02T13:16:19.212Z,99632.72
2022-11-02T13:18:55.289Z,99634.63
2022-11-02T13:21:41.161Z,99630.16
2022-11-02T13:24:18.035Z,99641.88
2022-11-02T13:26:53.187Z,99638.09
2022-11-02T13:29:42.923Z,99636.34
2022-11-02T13:32:21.411Z,99641.09
2022-11-02T13:34:52.711Z,99640.66
2022-11-02T13:37:35.774Z,99652.91
2022-11-02T13:40:12.440Z,99647.91
2022-11-02T13:43:24.448Z,99646.03
2022-11-02T13:46:27.229Z,99652.16
2022-11-02T13:49:02.382Z,99639.84
2022-11-02T13:51:32.400Z,99637.41
2022-11-02T13:54:05.016Z,99650.63
2022-11-02T13:56:36.884Z,99645.19
2022-11-02T13:59:10.632Z,99642.63
2022-11-02T14:01:41.446Z,99638.44
2022-11-02T14:04:11.599Z,99637.25
2022-11-02T14:06:48.335Z,99652.50
2022-11-02T14:09:30.401Z,99648.72
2022-11-02T14:12:27.543Z,99647.25
2022-11-02T14:15:17.779Z,99645.22
2022-11-02T14:17:54.074Z,99651.47
2022-11-02T14:20:38.323Z,99651.22
2022-11-02T14:23:12.165Z,99649.34
2022-11-02T14:25:45.579Z,99657.75
2022-11-02T14:28:22.155Z,99660.00
2022-11-02T14:30:55.080Z,99657.75
2022-11-02T14:33:31.135Z,99655.81
2022-11-02T14:36:05.574Z,99660.66
2022-11-02T14:38:41.143Z,99656.28
2022-11-02T14:41:14.301Z,99656.88
2022-11-02T14:44:14.174Z,99663.81
2022-11-02T14:46:44.646Z,99665.75
2022-11-02T14:49:20.868Z,99661.47
2022-11-02T14:52:17.377Z,99668.00
2022-11-02T14:54:53.795Z,99652.69
2022-11-02T14:57:30.620Z,99670.06
2022-11-02T15:00:04.112Z,99656.09
2022-11-02T15:02:42.999Z,99666.81
2022-11-02T15:05:34.022Z,99667.22
2022-11-02T15:08:04.433Z,99665.47
2022-11-02T15:10:31.818Z,99655.22
2022-11-02T15:13:20.779Z,99665.88
2022-11-02T15:15:50.996Z,99658.44
2022-11-02T15:18:35.040Z,99648.09
2022-11-02T15:21:11.620Z,99655.41
2022-11-02T15:23:52.038Z,99651.31
2022-11-02T15:26:25.891Z,99652.66
2022-11-02T15:28:58.471Z,99655.88
2022-11-02T15:31:27.973Z,99665.25
2022-11-02T15:33:59.384Z,99659.69
2022-11-02T15:36:41.987Z,99658.47
2022-11-02T15:39:12.740Z,99658.56
2022-11-02T15:41:56.419Z,99653.88
2022-11-02T15:44:29.614Z,99663.31
2022-11-02T15:47:13.421Z,99667.38
2022-11-02T15:49:43.810Z,99668.34
2022-11-02T15:52:31.817Z,99668.00
2022-11-02T15:55:08.286Z,99676.28
2022-11-02T15:58:02.415Z,99667.75
2022-11-02T16:00:33.044Z,99669.72
2022-11-02T16:03:07.028Z,99673.22
2022-11-02T16:05:47.539Z,99683.09
2022-11-02T16:08:24.063Z,99681.75
2022-11-02T16:11:04.012Z,99686.38
2022-11-02T16:13:48.771Z,99685.09
2022-11-02T16:16:22.999Z,99670.22
2022-11-02T16:18:52.987Z,99681.63
2022-11-02T16:22:01.459Z,99684.06
2022-11-02T16:24:30.282Z,99682.78
2022-11-02T16:26:57.890Z,99685.59
2022-11-02T16:29:31.770Z,99687.69
2022-11-02T16:32:01.278Z,99696.66
2022-11-02T16:34:45.084Z,99703.03
2022-11-02T16:37:24.261Z,99694.75
2022-11-02T16:39:52.107Z,99704.34
2022-11-02T16:42:24.078Z,99709.53
2022-11-02T16:45:01.026Z,99711.50
2022-11-02T16:47:39.437Z,99704.53
2022-11-02T16:50:24.752Z,99701.91
2022-11-02T16:53:03.951Z,99709.25
2022-11-02T16:55:39.214Z,99704.78
2022-11-02T16:58:23.053Z,99705.22
2022-11-02T17:01:02.134Z,99703.41
2022-11-02T17:03:32.123Z,99701.78
2022-11-02T17:06:03.213Z,99705.31
2022-11-02T17:08:36.458Z,99694.50
2022-11-02T17:11:06.509Z,99693.41
2022-11-02T17:13:37.665Z,99699.03
2022-11-02T17:16:11.599Z,99703.03
2022-11-02T17:18:39.357Z,99709.84
2022-11-02T17:21:12.824Z,99704.88
2022-11-02T17:23:42.797Z,99704.25
2022-11-02T17:26:22.261Z,99711.50
2022-11-02T17:28:52.649Z,99707.66
2022-11-02T17:31:28.192Z,99702.78
2022-11-02T17:33:59.549Z,99706.78
2022-11-02T17:36:27.520Z,99714.81
2022-11-02T17:38:55.547Z,99712.47
2022-11-02T17:41:56.078Z,99716.00
2022-11-02T17:44:23.771Z,99714.56
2022-11-02T17:46:51.431Z,99711.25
2022-11-02T17:49:19.203Z,99705.31
2022-11-02T17:51:47.652Z,99720.25
2022-11-02T17:54:15.323Z,99716.25
2022-11-02T17:56:42.936Z,99705.16
2022-11-02T17:59:11.920Z,99713.38
2022-11-02T18:01:40.045Z,99715.63
2022-11-02T18:04:07.934Z,99720.25
2022-11-02T18:06:35.838Z,99723.66
2022-11-02T18:09:14.609Z,99721.81
2022-11-02T18:11:44.612Z,99719.56
2022-11-02T18:14:16.985Z,99720.59
2022-11-02T18:16:45.688Z,99737.53
2022-11-02T18:19:13.398Z,99727.41
2022-11-02T18:21:41.171Z,99722.22
2022-11-02T18:24:11.159Z,99724.19
2022-11-02T18:26:41.434Z,99721.56
2022-11-02T18:29:12.237Z,99721.22
2022-11-02T18:31:39.862Z,99718.41
2022-11-02T18:34:07.532Z,99724.53
2022-11-02T18:36:38.448Z,99727.19
2022-11-02T18:39:06.119Z,99725.66
2022-11-02T18:41:35.534Z,99723.75
2022-11-02T18:44:09.010Z,99725.53
2022-11-02T18:46:39.546Z,99725.22
2022-11-02T18:49:07.233Z,99732.06
2022-11-02T18:51:35.294Z,99724.75
2022-11-02T18:54:06.768Z,99721.91
2022-11-02T18:56:34.476Z,99714.22
2022-11-02T18:59:02.271Z,99714.41
2022-11-02T19:01:30.265Z,99717.81
2022-11-02T19:04:00.053Z,99716.84
2022-11-02T19:06:49.674Z,99721.47
2022-11-02T19:09:18.768Z,99721.56
2022-11-02T19:11:46.214Z,99723.41
2022-11-02T19:14:14.159Z,99716.59
2022-11-02T19:16:42.018Z,99725.25
2022-11-02T19:19:11.357Z,99724.72
2022-11-02T19:21:39.542Z,99723.16
2022-11-02T19:24:07.942Z,99724.91
2022-11-02T19:26:36.007Z,99726.78
2022-11-02T19:29:06.442Z,99729.97
2022-11-02T19:31:35.792Z,99731.63
2022-11-02T19:34:04.213Z,99727.06
2022-11-02T19:36:33.073Z,99732.88
2022-11-02T19:39:03.394Z,99733.44
2022-11-02T19:41:31.596Z,99727.06
2022-11-02T19:43:59.243Z,99724.44
2022-11-02T19:46:27.480Z,99727.66
2022-11-02T19:48:57.451Z,99736.69
2022-11-02T19:51:29.883Z,99736.78
2022-11-02T19:53:59.622Z,99734.34
2022-11-02T19:56:30.014Z,99738.25
2022-11-02T19:58:58.401Z,99745.06
2022-11-02T20:01:31.676Z,99737.47
2022-11-02T20:04:00.224Z,99747.69
2022-11-02T20:06:39.105Z,99749.88
2022-11-02T20:09:13.035Z,99749.47
2022-11-02T20:11:44.655Z,99735.47
2022-11-02T20:14:14.153Z,99744.09
2022-11-02T20:16:42.384Z,99740.09
2022-11-02T20:19:11.024Z,99749.25
2022-11-02T20:21:42.964Z,99747.16
2022-11-02T20:24:11.887Z,99763.25
2022-11-02T20:26:43.456Z,99756.44
2022-11-02T20:29:13.818Z,99753.56
2022-11-02T20:31:44.790Z,99760.19
2022-11-02T20:34:13.148Z,99769.44
2022-11-02T20:36:41.405Z,99763.28
2022-11-02T20:39:11.003Z,99765.50
2022-11-02T20:41:38.601Z,99769.47
2022-11-02T20:44:06.111Z,99769.25
2022-11-02T20:46:39.639Z,99769.03
2022-11-02T20:49:20.543Z,99768.81
2022-11-02T20:51:50.141Z,99768.94
2022-11-02T20:54:19.677Z,99774.09
2022-11-02T20:56:48.628Z,99775.53
2022-11-02T20:59:16.226Z,99769.69
2022-11-02T21:01:43.871Z,99768.16
2022-11-02T21:04:16.857Z,99759.34
2022-11-02T21:06:46.006Z,99764.63
2022-11-02T21:09:13.538Z,99767.50
2022-11-02T21:11:59.869Z,99763.09
2022-11-02T21:14:27.384Z,99763.28
2022-11-02T21:16:55.574Z,99763.41
2022-11-02T21:19:23.150Z,99766.81
2022-11-02T21:21:55.092Z,99761.66
2022-11-02T21:24:25.820Z,99763.63
2022-11-02T21:26:53.255Z,99758.66
2022-11-02T21:29:21.377Z,99764.41
2022-11-02T21:31:49.177Z,99770.47
2022-11-02T21:34:16.596Z,99766.16
2022-11-02T21:36:44.138Z,99764.19
2022-11-02T21:39:11.563Z,99760.88
2022-11-02T21:41:39.565Z,99769.78
2022-11-02T21:44:07.828Z,99766.28
2022-11-02T21:46:36.002Z,99783.31
2022-11-02T21:49:04.131Z,99775.63
2022-11-02T21:51:31.673Z,99780.25
2022-11-02T21:53:59.135Z,99779.56
2022-11-02T21:56:27.823Z,99780.56
2022-11-02T21:58:56.174Z,99771.97
2022-11-02T22:01:45.684Z,99772.84
2022-11-02T22:04:14.861Z,99771.88
2022-11-02T22:06:42.999Z,99773.63
2022-11-02T22:09:12.387Z,99767.00
2022-11-02T22:11:41.554Z,99769.34
2022-11-02T22:14:09.027Z,99766.72
2022-11-02T22:16:39.165Z,99773.09
2022-11-02T22:19:14.465Z,99762.19
2022-11-02T22:21:44.143Z,99769.00
2022-11-02T22:24:12.671Z,99775.03
2022-11-02T22:26:40.679Z,99768.56
2022-11-02T22:29:08.947Z,99772.75
2022-11-02T22:31:39.440Z,99779.56
2022-11-02T22:34:09.113Z,99771.19
2022-11-02T22:36:38.449Z,99763.78
2022-11-02T22:39:07.726Z,99768.75
2022-11-02T22:41:41.280Z,99777.66
2022-11-02T22:44:21.157Z,99775.13
2022-11-02T22:46:50.660Z,99766.22
2022-11-02T22:49:19.549Z,99770.97
2022-11-02T22:51:50.543Z,99775.28
2022-11-02T22:54:19.697Z,99778.56
2022-11-02T22:56:48.833Z,99779.44
2022-11-02T22:59:16.374Z,99774.28
2022-11-02T23:01:44.048Z,99779.56
2022-11-02T23:04:12.337Z,99774.50
2022-11-02T23:06:40.250Z,99775.47
2022-11-02T23:09:10.360Z,99770.31
2022-11-02T23:11:38.476Z,99776.78
2022-11-02T23:14:14.108Z,99762.88
2022-11-02T23:16:43.666Z,99764.31
2022-11-02T23:19:29.971Z,99769.91
2022-11-02T23:22:24.022Z,99767.19
2022-11-02T23:25:11.612Z,99768.16
2022-11-02T23:28:03.093Z,99769.81
2022-11-02T23:30:53.854Z,99777.63
2022-11-02T23:33:23.616Z,99768.94
2022-11-02T23:36:10.462Z,99779.19
2022-11-02T23:39:01.135Z,99772.53
2022-11-02T23:41:30.127Z,99766.94
2022-11-02T23:44:14.031Z,99769.72
2022-11-02T23:46:43.439Z,99772.25
2022-11-02T23:49:11.824Z,99768.84
2022-11-02T23:51:58.162Z,99773.69
2022-11-02T23:54:44.215Z,99777.00
2022-11-02T23:57:12.787Z,99773.56
2022-11-02T23:59:41.039Z,99779.44
